Terminal Aerodrome Forecast
Issued by NWS

Home | Current Version | Previous Version | Graphics & Text | Print | Product List | Glossary On
Versions: 1 2 3 4 5 6 7 8 9 10 11 12 13 14 15 16 17 18
000
FTUS43 KGRB 251700
TAFATW
TAF
KATW 251726Z 2518/2618 04013G19KT 6SM -SN OVC025
     FM252100 03010G16KT P6SM SCT030
     FM260000 03009KT P6SM SCT250
     FM260600 VRB03KT P6SM SCT100 BKN200
     FM261400 19007KT P6SM OVC060
     FM261700 19011KT 3SM -SN OVC025=

USA.gov is the U.S. government's official web portal to all federal, state and local government web resources and services.